Strona główna
METAR-TAF:

METAR-TAF

Lotnisko :

Hettinger Municipal Airport

Hettinger, Dakota Północna, Stany Zjednoczone

Szerokość geograficzna: 46-00-38N, Długość geograficzna: 102-38-59W, wysokość: 824 m

Aktualna obserwacja pogody

Raport powstał 53 minut temu, godzina 02:53 UTC
Wiatr 20 kt od północno-północny zachód w porywach dochodzący do 28 kt
Temperatura -11°C
Wilgotność 78%
Ciśnienie 1016 hPa
Widzialność: 9.7 km
Zachmurzenie całkowite na wysokości 2400 ft
słaby śnieg

METAR: KHEI 100253Z AUTO 33020G28KT 6SM -SN OVC024 M11/M14 A2999 RMK AO2 PK WND 31031/0218 SNB05 SLP210 P0000 60000 T11111139 51025

czas: 20:46 (03:46 UTC)


TAF: brakujący

Obserwacja i prognoza pogody dla ponad 4000 lotnisk (raport METAR i TAF).

Dostępne stacje oznaczono żółtymi i czerwonymi punktami na mapie.

Najedź kursorem aby zobaczyć nazwę stacji.

Kliknij aby zobaczyć obserwacje i prognozy pogody.

Aby zmienić mapę: kliknij na zielony przycisk z czarnym krzyżykiem, aby powiększyć; na zielony przycisk z myślnikiem, aby pomniejszyć; na zielone strzałki, aby przejść do map sąsiednich.


METAR-TAF: